sensor_id;sensor_type;location;lat;lon;timestamp;temperature;humidity
11009;DHT22;5557;51.670;7.788;2023-04-08T00:00:07;3.80;99.90
11009;DHT22;5557;51.670;7.788;2023-04-08T00:02:34;3.70;99.90
11009;DHT22;5557;51.670;7.788;2023-04-08T00:05:02;3.60;99.90
11009;DHT22;5557;51.670;7.788;2023-04-08T00:07:29;3.50;99.90
11009;DHT22;5557;51.670;7.788;2023-04-08T00:09:56;3.40;99.90
11009;DHT22;5557;51.670;7.788;2023-04-08T00:12:23;3.40;99.90
11009;DHT22;5557;51.670;7.788;2023-04-08T00:14:50;3.30;99.90
11009;DHT22;5557;51.670;7.788;2023-04-08T00:17:17;3.40;99.90
11009;DHT22;5557;51.670;7.788;2023-04-08T00:19:46;3.30;99.90
11009;DHT22;5557;51.670;7.788;2023-04-08T00:22:14;3.30;99.90
11009;DHT22;5557;51.670;7.788;2023-04-08T00:24:44;3.20;99.90
11009;DHT22;5557;51.670;7.788;2023-04-08T00:27:11;3.10;99.90
11009;DHT22;5557;51.670;7.788;2023-04-08T00:29:39;3.10;99.90
11009;DHT22;5557;51.670;7.788;2023-04-08T00:32:06;3.10;99.90
11009;DHT22;5557;51.670;7.788;2023-04-08T00:34:33;3.00;99.90
11009;DHT22;5557;51.670;7.788;2023-04-08T00:37:00;3.00;99.90
11009;DHT22;5557;51.670;7.788;2023-04-08T00:39:27;2.90;99.90
11009;DHT22;5557;51.670;7.788;2023-04-08T00:41:54;2.90;99.90
11009;DHT22;5557;51.670;7.788;2023-04-08T00:44:24;2.90;99.90
11009;DHT22;5557;51.670;7.788;2023-04-08T00:46:51;2.80;99.90
11009;DHT22;5557;51.670;7.788;2023-04-08T00:49:18;2.80;99.90
11009;DHT22;5557;51.670;7.788;2023-04-08T00:51:46;2.70;99.90
11009;DHT22;5557;51.670;7.788;2023-04-08T00:54:13;2.70;99.90
11009;DHT22;5557;51.670;7.788;2023-04-08T00:56:40;2.70;99.90
11009;DHT22;5557;51.670;7.788;2023-04-08T00:59:14;2.70;99.90
11009;DHT22;5557;51.670;7.788;2023-04-08T01:01:46;2.60;99.90
11009;DHT22;5557;51.670;7.788;2023-04-08T01:04:39;2.60;99.90
11009;DHT22;5557;51.670;7.788;2023-04-08T01:07:17;2.60;99.90
11009;DHT22;5557;51.670;7.788;2023-04-08T01:09:47;2.50;99.90
11009;DHT22;5557;51.670;7.788;2023-04-08T01:12:24;2.50;99.90
11009;DHT22;5557;51.670;7.788;2023-04-08T01:14:59;2.50;99.90
11009;DHT22;5557;51.670;7.788;2023-04-08T01:17:28;2.50;99.90
11009;DHT22;5557;51.670;7.788;2023-04-08T01:19:57;2.50;99.90
11009;DHT22;5557;51.670;7.788;2023-04-08T01:22:40;2.40;99.90
11009;DHT22;5557;51.670;7.788;2023-04-08T01:25:15;2.40;99.90
11009;DHT22;5557;51.670;7.788;2023-04-08T01:27:43;2.30;99.90
11009;DHT22;5557;51.670;7.788;2023-04-08T01:30:11;2.30;99.90
11009;DHT22;5557;51.670;7.788;2023-04-08T01:32:40;2.30;99.90
11009;DHT22;5557;51.670;7.788;2023-04-08T01:35:15;2.30;99.90
11009;DHT22;5557;51.670;7.788;2023-04-08T01:37:43;2.30;99.90
11009;DHT22;5557;51.670;7.788;2023-04-08T01:40:11;2.30;99.90
11009;DHT22;5557;51.670;7.788;2023-04-08T01:42:39;2.30;99.90
11009;DHT22;5557;51.670;7.788;2023-04-08T01:45:08;2.30;99.90
11009;DHT22;5557;51.670;7.788;2023-04-08T01:47:36;2.30;99.90
11009;DHT22;5557;51.670;7.788;2023-04-08T01:50:06;2.30;99.90
11009;DHT22;5557;51.670;7.788;2023-04-08T01:52:36;2.20;99.90
11009;DHT22;5557;51.670;7.788;2023-04-08T01:55:06;2.20;99.90
11009;DHT22;5557;51.670;7.788;2023-04-08T01:57:36;2.20;99.90
11009;DHT22;5557;51.670;7.788;2023-04-08T02:00:08;2.10;99.90
11009;DHT22;5557;51.670;7.788;2023-04-08T02:02:37;2.10;99.90
11009;DHT22;5557;51.670;7.788;2023-04-08T02:05:05;2.10;99.90
11009;DHT22;5557;51.670;7.788;2023-04-08T02:07:32;2.10;99.90
11009;DHT22;5557;51.670;7.788;2023-04-08T02:09:59;2.10;99.90
11009;DHT22;5557;51.670;7.788;2023-04-08T02:12:27;2.10;99.90
11009;DHT22;5557;51.670;7.788;2023-04-08T02:14:55;2.10;99.90
11009;DHT22;5557;51.670;7.788;2023-04-08T02:17:45;2.00;99.90
11009;DHT22;5557;51.670;7.788;2023-04-08T02:20:37;2.00;99.90
11009;DHT22;5557;51.670;7.788;2023-04-08T02:23:18;2.00;99.90
11009;DHT22;5557;51.670;7.788;2023-04-08T02:25:47;1.90;99.90
11009;DHT22;5557;51.670;7.788;2023-04-08T02:28:17;1.90;99.90
11009;DHT22;5557;51.670;7.788;2023-04-08T02:30:49;1.90;99.90
11009;DHT22;5557;51.670;7.788;2023-04-08T02:33:22;1.80;99.90
11009;DHT22;5557;51.670;7.788;2023-04-08T02:35:50;1.70;99.90
11009;DHT22;5557;51.670;7.788;2023-04-08T02:38:21;1.70;99.90
11009;DHT22;5557;51.670;7.788;2023-04-08T02:40:50;1.60;99.90
11009;DHT22;5557;51.670;7.788;2023-04-08T02:43:17;1.60;99.90
11009;DHT22;5557;51.670;7.788;2023-04-08T02:45:44;1.50;99.90
11009;DHT22;5557;51.670;7.788;2023-04-08T02:48:11;1.50;99.90
11009;DHT22;5557;51.670;7.788;2023-04-08T02:50:38;1.50;99.90
11009;DHT22;5557;51.670;7.788;2023-04-08T02:53:08;1.50;99.90
11009;DHT22;5557;51.670;7.788;2023-04-08T02:55:35;1.50;99.90
11009;DHT22;5557;51.670;7.788;2023-04-08T02:58:02;1.60;99.90
11009;DHT22;5557;51.670;7.788;2023-04-08T03:00:29;1.70;99.90
11009;DHT22;5557;51.670;7.788;2023-04-08T03:02:56;1.70;99.90
11009;DHT22;5557;51.670;7.788;2023-04-08T03:05:25;1.80;99.90
11009;DHT22;5557;51.670;7.788;2023-04-08T03:07:52;1.80;99.90
11009;DHT22;5557;51.670;7.788;2023-04-08T03:10:19;1.80;99.90
11009;DHT22;5557;51.670;7.788;2023-04-08T03:12:46;1.80;99.90
11009;DHT22;5557;51.670;7.788;2023-04-08T03:15:13;1.80;99.90
11009;DHT22;5557;51.670;7.788;2023-04-08T03:17:41;1.70;99.90
11009;DHT22;5557;51.670;7.788;2023-04-08T03:20:08;1.80;99.90
11009;DHT22;5557;51.670;7.788;2023-04-08T03:22:36;1.80;99.90
11009;DHT22;5557;51.670;7.788;2023-04-08T03:25:03;1.80;99.90
11009;DHT22;5557;51.670;7.788;2023-04-08T03:27:30;1.90;99.90
11009;DHT22;5557;51.670;7.788;2023-04-08T03:29:57;1.90;99.90
11009;DHT22;5557;51.670;7.788;2023-04-08T03:32:24;2.00;99.90
11009;DHT22;5557;51.670;7.788;2023-04-08T03:34:51;2.00;99.90
11009;DHT22;5557;51.670;7.788;2023-04-08T03:37:19;2.10;99.90
11009;DHT22;5557;51.670;7.788;2023-04-08T03:39:46;2.10;99.90
11009;DHT22;5557;51.670;7.788;2023-04-08T03:42:13;2.20;99.90
11009;DHT22;5557;51.670;7.788;2023-04-08T03:44:40;2.20;99.90
11009;DHT22;5557;51.670;7.788;2023-04-08T03:47:08;2.30;99.90
11009;DHT22;5557;51.670;7.788;2023-04-08T03:49:34;2.30;99.90
11009;DHT22;5557;51.670;7.788;2023-04-08T03:52:02;2.30;99.90
11009;DHT22;5557;51.670;7.788;2023-04-08T03:54:29;2.40;99.90
11009;DHT22;5557;51.670;7.788;2023-04-08T03:56:56;2.40;99.90
11009;DHT22;5557;51.670;7.788;2023-04-08T03:59:23;2.40;99.90
11009;DHT22;5557;51.670;7.788;2023-04-08T04:01:51;2.50;99.90
11009;DHT22;5557;51.670;7.788;2023-04-08T04:04:19;2.60;99.90
11009;DHT22;5557;51.670;7.788;2023-04-08T04:06:47;2.60;99.90
11009;DHT22;5557;51.670;7.788;2023-04-08T04:09:14;2.60;99.90
11009;DHT22;5557;51.670;7.788;2023-04-08T04:11:42;2.70;99.90
11009;DHT22;5557;51.670;7.788;2023-04-08T04:14:09;2.70;99.90
11009;DHT22;5557;51.670;7.788;2023-04-08T04:16:38;2.70;99.90
11009;DHT22;5557;51.670;7.788;2023-04-08T04:19:05;2.70;99.90
11009;DHT22;5557;51.670;7.788;2023-04-08T04:21:34;2.70;99.90
11009;DHT22;5557;51.670;7.788;2023-04-08T04:24:01;2.70;99.90
11009;DHT22;5557;51.670;7.788;2023-04-08T04:26:27;2.80;99.90
11009;DHT22;5557;51.670;7.788;2023-04-08T04:28:54;2.80;99.90
11009;DHT22;5557;51.670;7.788;2023-04-08T04:31:23;2.80;99.90
11009;DHT22;5557;51.670;7.788;2023-04-08T04:33:53;2.80;99.90
11009;DHT22;5557;51.670;7.788;2023-04-08T04:36:21;2.80;99.90
11009;DHT22;5557;51.670;7.788;2023-04-08T04:38:48;2.70;99.90
11009;DHT22;5557;51.670;7.788;2023-04-08T04:41:16;2.70;99.90
11009;DHT22;5557;51.670;7.788;2023-04-08T04:43:43;2.70;99.90
11009;DHT22;5557;51.670;7.788;2023-04-08T04:46:10;2.70;99.90
11009;DHT22;5557;51.670;7.788;2023-04-08T04:48:39;2.70;99.90
11009;DHT22;5557;51.670;7.788;2023-04-08T04:51:06;2.70;99.90
11009;DHT22;5557;51.670;7.788;2023-04-08T04:53:37;2.70;99.90
11009;DHT22;5557;51.670;7.788;2023-04-08T04:56:04;2.70;99.90
11009;DHT22;5557;51.670;7.788;2023-04-08T04:58:31;2.70;99.90
11009;DHT22;5557;51.670;7.788;2023-04-08T05:00:58;2.70;99.90
11009;DHT22;5557;51.670;7.788;2023-04-08T05:03:25;2.60;99.90
11009;DHT22;5557;51.670;7.788;2023-04-08T05:05:53;2.50;99.90
11009;DHT22;5557;51.670;7.788;2023-04-08T05:08:20;2.60;99.90
11009;DHT22;5557;51.670;7.788;2023-04-08T05:10:49;2.60;99.90
11009;DHT22;5557;51.670;7.788;2023-04-08T05:13:17;2.60;99.90
11009;DHT22;5557;51.670;7.788;2023-04-08T05:15:44;2.60;99.90
11009;DHT22;5557;51.670;7.788;2023-04-08T05:18:14;2.70;99.90
11009;DHT22;5557;51.670;7.788;2023-04-08T05:20:41;2.80;99.90
11009;DHT22;5557;51.670;7.788;2023-04-08T05:23:08;2.90;99.90
11009;DHT22;5557;51.670;7.788;2023-04-08T05:25:35;2.90;99.90
11009;DHT22;5557;51.670;7.788;2023-04-08T05:28:02;3.00;99.90
11009;DHT22;5557;51.670;7.788;2023-04-08T05:30:30;3.10;99.90
11009;DHT22;5557;51.670;7.788;2023-04-08T05:32:58;3.10;99.90
11009;DHT22;5557;51.670;7.788;2023-04-08T05:35:27;3.10;99.90
11009;DHT22;5557;51.670;7.788;2023-04-08T05:37:54;3.20;99.90
11009;DHT22;5557;51.670;7.788;2023-04-08T05:40:21;3.30;99.90
11009;DHT22;5557;51.670;7.788;2023-04-08T05:42:48;3.40;99.90
11009;DHT22;5557;51.670;7.788;2023-04-08T05:45:15;3.50;99.90
11009;DHT22;5557;51.670;7.788;2023-04-08T05:47:42;3.50;99.90
11009;DHT22;5557;51.670;7.788;2023-04-08T05:50:09;3.60;99.90
11009;DHT22;5557;51.670;7.788;2023-04-08T05:52:40;3.60;99.90
11009;DHT22;5557;51.670;7.788;2023-04-08T05:55:07;3.60;99.90
11009;DHT22;5557;51.670;7.788;2023-04-08T05:57:35;3.70;99.90
11009;DHT22;5557;51.670;7.788;2023-04-08T06:00:03;3.70;99.90
11009;DHT22;5557;51.670;7.788;2023-04-08T06:02:31;3.80;99.90
11009;DHT22;5557;51.670;7.788;2023-04-08T06:04:58;3.80;99.90
11009;DHT22;5557;51.670;7.788;2023-04-08T06:07:25;3.90;99.90
11009;DHT22;5557;51.670;7.788;2023-04-08T06:09:52;4.00;99.90
11009;DHT22;5557;51.670;7.788;2023-04-08T06:12:19;4.00;99.90
11009;DHT22;5557;51.670;7.788;2023-04-08T06:14:46;4.00;99.90
11009;DHT22;5557;51.670;7.788;2023-04-08T06:17:13;3.90;99.90
11009;DHT22;5557;51.670;7.788;2023-04-08T06:19:40;3.90;99.90
11009;DHT22;5557;51.670;7.788;2023-04-08T06:22:07;3.90;99.90
11009;DHT22;5557;51.670;7.788;2023-04-08T06:24:35;3.90;99.90
11009;DHT22;5557;51.670;7.788;2023-04-08T06:27:02;3.90;99.90
11009;DHT22;5557;51.670;7.788;2023-04-08T06:29:29;3.90;99.90
11009;DHT22;5557;51.670;7.788;2023-04-08T06:31:57;3.90;99.90
11009;DHT22;5557;51.670;7.788;2023-04-08T06:34:24;4.00;99.90
11009;DHT22;5557;51.670;7.788;2023-04-08T06:36:51;4.00;99.90
11009;DHT22;5557;51.670;7.788;2023-04-08T06:39:18;4.10;99.90
11009;DHT22;5557;51.670;7.788;2023-04-08T06:41:47;4.10;99.90
11009;DHT22;5557;51.670;7.788;2023-04-08T06:44:14;4.30;99.90
11009;DHT22;5557;51.670;7.788;2023-04-08T06:46:41;4.30;99.90
11009;DHT22;5557;51.670;7.788;2023-04-08T06:49:08;4.50;99.90
11009;DHT22;5557;51.670;7.788;2023-04-08T06:51:35;4.60;99.90
11009;DHT22;5557;51.670;7.788;2023-04-08T06:54:02;4.70;99.90
11009;DHT22;5557;51.670;7.788;2023-04-08T06:56:30;4.80;99.90
11009;DHT22;5557;51.670;7.788;2023-04-08T06:58:56;5.00;99.90
11009;DHT22;5557;51.670;7.788;2023-04-08T07:01:24;5.00;99.90
11009;DHT22;5557;51.670;7.788;2023-04-08T07:03:51;5.10;99.90
11009;DHT22;5557;51.670;7.788;2023-04-08T07:06:18;5.10;99.90
11009;DHT22;5557;51.670;7.788;2023-04-08T07:08:45;5.30;99.90
11009;DHT22;5557;51.670;7.788;2023-04-08T07:11:12;5.30;99.90
11009;DHT22;5557;51.670;7.788;2023-04-08T07:13:39;5.40;99.90
11009;DHT22;5557;51.670;7.788;2023-04-08T07:16:06;5.50;99.90
11009;DHT22;5557;51.670;7.788;2023-04-08T07:18:33;5.60;99.90
11009;DHT22;5557;51.670;7.788;2023-04-08T07:21:00;5.60;99.90
11009;DHT22;5557;51.670;7.788;2023-04-08T07:23:27;5.60;99.90
11009;DHT22;5557;51.670;7.788;2023-04-08T07:25:55;5.60;99.90
11009;DHT22;5557;51.670;7.788;2023-04-08T07:28:21;5.70;99.90
11009;DHT22;5557;51.670;7.788;2023-04-08T07:30:49;5.70;99.90
11009;DHT22;5557;51.670;7.788;2023-04-08T07:33:16;5.80;99.90
11009;DHT22;5557;51.670;7.788;2023-04-08T07:35:44;6.00;99.90
11009;DHT22;5557;51.670;7.788;2023-04-08T07:38:11;6.00;99.90
11009;DHT22;5557;51.670;7.788;2023-04-08T07:40:39;6.10;99.90
11009;DHT22;5557;51.670;7.788;2023-04-08T07:43:06;6.10;99.90
11009;DHT22;5557;51.670;7.788;2023-04-08T07:45:34;6.20;99.90
11009;DHT22;5557;51.670;7.788;2023-04-08T07:48:01;6.40;99.90
11009;DHT22;5557;51.670;7.788;2023-04-08T07:50:28;6.70;99.90
11009;DHT22;5557;51.670;7.788;2023-04-08T07:52:55;6.80;99.90
11009;DHT22;5557;51.670;7.788;2023-04-08T07:55:22;6.90;98.90
11009;DHT22;5557;51.670;7.788;2023-04-08T07:57:49;6.90;91.20
11009;DHT22;5557;51.670;7.788;2023-04-08T08:00:17;7.00;86.30
11009;DHT22;5557;51.670;7.788;2023-04-08T08:02:47;7.10;78.90
11009;DHT22;5557;51.670;7.788;2023-04-08T08:05:14;7.10;76.50
11009;DHT22;5557;51.670;7.788;2023-04-08T08:07:42;7.10;72.60
11009;DHT22;5557;51.670;7.788;2023-04-08T08:10:09;6.90;70.30
11009;DHT22;5557;51.670;7.788;2023-04-08T08:12:37;6.90;71.70
11009;DHT22;5557;51.670;7.788;2023-04-08T08:15:05;6.90;77.30
11009;DHT22;5557;51.670;7.788;2023-04-08T08:17:32;7.00;76.10
11009;DHT22;5557;51.670;7.788;2023-04-08T08:20:00;6.90;78.60
11009;DHT22;5557;51.670;7.788;2023-04-08T08:22:27;6.90;74.70
11009;DHT22;5557;51.670;7.788;2023-04-08T08:24:57;6.80;80.50
11009;DHT22;5557;51.670;7.788;2023-04-08T08:27:25;6.90;87.60
11009;DHT22;5557;51.670;7.788;2023-04-08T08:29:52;6.90;84.20
11009;DHT22;5557;51.670;7.788;2023-04-08T08:32:19;6.90;79.80
11009;DHT22;5557;51.670;7.788;2023-04-08T08:34:46;6.80;81.30
11009;DHT22;5557;51.670;7.788;2023-04-08T08:37:14;6.90;82.80
11009;DHT22;5557;51.670;7.788;2023-04-08T08:39:41;7.00;79.60
11009;DHT22;5557;51.670;7.788;2023-04-08T08:42:26;7.10;75.60
11009;DHT22;5557;51.670;7.788;2023-04-08T08:44:53;7.30;78.00
11009;DHT22;5557;51.670;7.788;2023-04-08T08:47:20;7.30;73.00
11009;DHT22;5557;51.670;7.788;2023-04-08T08:49:48;7.30;73.40
11009;DHT22;5557;51.670;7.788;2023-04-08T08:52:15;7.20;72.00
11009;DHT22;5557;51.670;7.788;2023-04-08T08:54:46;7.20;73.70
11009;DHT22;5557;51.670;7.788;2023-04-08T08:57:18;7.20;76.80
11009;DHT22;5557;51.670;7.788;2023-04-08T08:59:46;7.30;78.50
11009;DHT22;5557;51.670;7.788;2023-04-08T09:02:28;7.40;75.90
11009;DHT22;5557;51.670;7.788;2023-04-08T09:05:00;7.50;74.40
11009;DHT22;5557;51.670;7.788;2023-04-08T09:07:29;7.70;67.90
11009;DHT22;5557;51.670;7.788;2023-04-08T09:09:57;7.70;60.20
11009;DHT22;5557;51.670;7.788;2023-04-08T09:12:27;7.70;64.30
11009;DHT22;5557;51.670;7.788;2023-04-08T09:15:04;7.80;61.60
11009;DHT22;5557;51.670;7.788;2023-04-08T09:17:39;7.90;65.30
11009;DHT22;5557;51.670;7.788;2023-04-08T09:23:04;8.10;60.00
11009;DHT22;5557;51.670;7.788;2023-04-08T09:25:32;8.10;59.00
11009;DHT22;5557;51.670;7.788;2023-04-08T09:27:59;8.30;58.60
11009;DHT22;5557;51.670;7.788;2023-04-08T09:30:28;8.40;58.60
11009;DHT22;5557;51.670;7.788;2023-04-08T09:32:58;8.40;49.00
11009;DHT22;5557;51.670;7.788;2023-04-08T09:35:28;8.40;50.70
11009;DHT22;5557;51.670;7.788;2023-04-08T09:37:55;8.30;50.60
11009;DHT22;5557;51.670;7.788;2023-04-08T09:40:24;8.30;50.70
11009;DHT22;5557;51.670;7.788;2023-04-08T09:42:54;8.20;48.50
11009;DHT22;5557;51.670;7.788;2023-04-08T09:45:23;8.20;48.70
11009;DHT22;5557;51.670;7.788;2023-04-08T09:48:01;8.30;50.70
11009;DHT22;5557;51.670;7.788;2023-04-08T09:50:31;8.40;50.60
11009;DHT22;5557;51.670;7.788;2023-04-08T09:53:10;8.60;48.30
11009;DHT22;5557;51.670;7.788;2023-04-08T09:55:40;8.70;45.40
11009;DHT22;5557;51.670;7.788;2023-04-08T09:58:15;8.80;40.50
11009;DHT22;5557;51.670;7.788;2023-04-08T10:00:46;8.90;35.00
11009;DHT22;5557;51.670;7.788;2023-04-08T10:03:29;8.80;35.80
11009;DHT22;5557;51.670;7.788;2023-04-08T10:05:57;8.70;38.30
11009;DHT22;5557;51.670;7.788;2023-04-08T10:08:27;8.60;40.70
11009;DHT22;5557;51.670;7.788;2023-04-08T10:10:54;8.60;39.00
11009;DHT22;5557;51.670;7.788;2023-04-08T10:13:23;8.70;39.60
11009;DHT22;5557;51.670;7.788;2023-04-08T10:19:36;8.80;41.10
11009;DHT22;5557;51.670;7.788;2023-04-08T10:25:36;9.20;33.10
11009;DHT22;5557;51.670;7.788;2023-04-08T10:28:31;9.50;25.00
11009;DHT22;5557;51.670;7.788;2023-04-08T10:30:58;9.90;22.80
11009;DHT22;5557;51.670;7.788;2023-04-08T10:33:32;9.80;20.60
11009;DHT22;5557;51.670;7.788;2023-04-08T10:36:11;9.50;22.40
11009;DHT22;5557;51.670;7.788;2023-04-08T10:38:41;9.30;26.00
11009;DHT22;5557;51.670;7.788;2023-04-08T10:41:11;9.20;26.50
11009;DHT22;5557;51.670;7.788;2023-04-08T10:43:47;9.20;26.30
11009;DHT22;5557;51.670;7.788;2023-04-08T10:46:14;9.20;24.50
11009;DHT22;5557;51.670;7.788;2023-04-08T10:48:43;9.20;30.80
11009;DHT22;5557;51.670;7.788;2023-04-08T10:51:10;9.10;27.50
11009;DHT22;5557;51.670;7.788;2023-04-08T10:53:38;9.00;29.40
11009;DHT22;5557;51.670;7.788;2023-04-08T10:56:10;8.90;30.50
11009;DHT22;5557;51.670;7.788;2023-04-08T10:58:54;8.90;35.70
11009;DHT22;5557;51.670;7.788;2023-04-08T11:01:25;9.00;31.40
11009;DHT22;5557;51.670;7.788;2023-04-08T11:03:53;9.00;34.30
11009;DHT22;5557;51.670;7.788;2023-04-08T11:06:20;8.90;33.30
11009;DHT22;5557;51.670;7.788;2023-04-08T11:08:47;9.00;36.10
11009;DHT22;5557;51.670;7.788;2023-04-08T11:11:18;9.00;33.90
11009;DHT22;5557;51.670;7.788;2023-04-08T11:13:45;9.10;33.90
11009;DHT22;5557;51.670;7.788;2023-04-08T11:16:20;9.30;33.80
11009;DHT22;5557;51.670;7.788;2023-04-08T11:18:49;9.60;33.90
11009;DHT22;5557;51.670;7.788;2023-04-08T11:21:16;9.90;31.30
11009;DHT22;5557;51.670;7.788;2023-04-08T11:23:43;10.20;20.90
11009;DHT22;5557;51.670;7.788;2023-04-08T11:26:11;10.40;17.10
11009;DHT22;5557;51.670;7.788;2023-04-08T11:28:39;10.50;15.70
11009;DHT22;5557;51.670;7.788;2023-04-08T11:31:06;10.50;12.60
11009;DHT22;5557;51.670;7.788;2023-04-08T11:33:35;10.60;13.90
11009;DHT22;5557;51.670;7.788;2023-04-08T11:36:02;10.60;13.00
11009;DHT22;5557;51.670;7.788;2023-04-08T11:38:30;10.40;11.40
11009;DHT22;5557;51.670;7.788;2023-04-08T11:40:59;10.30;13.40
11009;DHT22;5557;51.670;7.788;2023-04-08T11:43:27;10.00;17.30
11009;DHT22;5557;51.670;7.788;2023-04-08T11:45:54;10.00;22.10
11009;DHT22;5557;51.670;7.788;2023-04-08T11:48:21;9.90;20.70
11009;DHT22;5557;51.670;7.788;2023-04-08T11:51:05;9.80;23.70
11009;DHT22;5557;51.670;7.788;2023-04-08T11:53:34;9.90;24.10
11009;DHT22;5557;51.670;7.788;2023-04-08T11:58:53;10.00;19.70
11009;DHT22;5557;51.670;7.788;2023-04-08T12:01:20;10.00;21.30
11009;DHT22;5557;51.670;7.788;2023-04-08T12:03:58;10.00;20.60
11009;DHT22;5557;51.670;7.788;2023-04-08T12:06:26;10.10;19.40
11009;DHT22;5557;51.670;7.788;2023-04-08T12:08:54;10.30;21.80
11009;DHT22;5557;51.670;7.788;2023-04-08T12:11:22;10.40;18.20
11009;DHT22;5557;51.670;7.788;2023-04-08T12:13:51;10.60;18.60
11009;DHT22;5557;51.670;7.788;2023-04-08T12:16:19;10.70;15.70
11009;DHT22;5557;51.670;7.788;2023-04-08T12:18:47;10.90;16.00
11009;DHT22;5557;51.670;7.788;2023-04-08T12:21:16;11.00;14.20
11009;DHT22;5557;51.670;7.788;2023-04-08T12:23:43;11.10;15.60
11009;DHT22;5557;51.670;7.788;2023-04-08T12:26:10;11.10;13.90
11009;DHT22;5557;51.670;7.788;2023-04-08T12:28:37;11.20;12.50
11009;DHT22;5557;51.670;7.788;2023-04-08T12:31:04;11.10;9.80
11009;DHT22;5557;51.670;7.788;2023-04-08T12:33:32;11.00;14.20
11009;DHT22;5557;51.670;7.788;2023-04-08T12:35:59;11.00;12.00
11009;DHT22;5557;51.670;7.788;2023-04-08T12:38:26;11.00;16.20
11009;DHT22;5557;51.670;7.788;2023-04-08T12:40:54;11.10;14.30
11009;DHT22;5557;51.670;7.788;2023-04-08T12:43:21;11.40;11.80
11009;DHT22;5557;51.670;7.788;2023-04-08T12:45:50;11.50;11.00
11009;DHT22;5557;51.670;7.788;2023-04-08T12:48:17;11.80;11.50
11009;DHT22;5557;51.670;7.788;2023-04-08T12:50:44;11.90;7.10
11009;DHT22;5557;51.670;7.788;2023-04-08T12:53:11;11.90;6.70
11009;DHT22;5557;51.670;7.788;2023-04-08T12:55:38;11.90;6.60
11009;DHT22;5557;51.670;7.788;2023-04-08T12:58:05;12.00;7.30
11009;DHT22;5557;51.670;7.788;2023-04-08T13:00:33;11.90;4.30
11009;DHT22;5557;51.670;7.788;2023-04-08T13:03:04;11.90;6.50
11009;DHT22;5557;51.670;7.788;2023-04-08T13:05:34;11.90;6.00
11009;DHT22;5557;51.670;7.788;2023-04-08T13:08:09;11.90;7.50
11009;DHT22;5557;51.670;7.788;2023-04-08T13:10:38;11.70;8.70
11009;DHT22;5557;51.670;7.788;2023-04-08T13:13:05;11.50;10.10
11009;DHT22;5557;51.670;7.788;2023-04-08T13:15:33;11.60;12.70
11009;DHT22;5557;51.670;7.788;2023-04-08T13:18:00;11.70;11.40
11009;DHT22;5557;51.670;7.788;2023-04-08T13:20:27;11.80;10.20
11009;DHT22;5557;51.670;7.788;2023-04-08T13:22:55;12.00;8.30
11009;DHT22;5557;51.670;7.788;2023-04-08T13:25:25;12.30;7.30
11009;DHT22;5557;51.670;7.788;2023-04-08T13:27:52;12.30;4.20
11009;DHT22;5557;51.670;7.788;2023-04-08T13:30:19;12.30;3.10
11009;DHT22;5557;51.670;7.788;2023-04-08T13:32:47;12.10;5.00
11009;DHT22;5557;51.670;7.788;2023-04-08T13:35:14;11.80;8.20
11009;DHT22;5557;51.670;7.788;2023-04-08T13:37:42;11.80;8.40
11009;DHT22;5557;51.670;7.788;2023-04-08T13:40:09;11.70;9.10
11009;DHT22;5557;51.670;7.788;2023-04-08T13:42:36;11.50;11.60
11009;DHT22;5557;51.670;7.788;2023-04-08T13:45:03;11.40;13.80
11009;DHT22;5557;51.670;7.788;2023-04-08T13:47:30;11.40;16.60
11009;DHT22;5557;51.670;7.788;2023-04-08T13:49:58;11.40;13.60
11009;DHT22;5557;51.670;7.788;2023-04-08T13:52:25;11.30;15.80
11009;DHT22;5557;51.670;7.788;2023-04-08T13:54:52;11.30;17.30
11009;DHT22;5557;51.670;7.788;2023-04-08T13:57:19;11.40;16.90
11009;DHT22;5557;51.670;7.788;2023-04-08T13:59:46;11.40;17.40
11009;DHT22;5557;51.670;7.788;2023-04-08T14:02:13;11.30;15.00
11009;DHT22;5557;51.670;7.788;2023-04-08T14:04:41;11.00;17.90
11009;DHT22;5557;51.670;7.788;2023-04-08T14:07:09;10.90;19.50
11009;DHT22;5557;51.670;7.788;2023-04-08T14:09:36;10.80;22.70
11009;DHT22;5557;51.670;7.788;2023-04-08T14:12:03;10.90;23.80
11009;DHT22;5557;51.670;7.788;2023-04-08T14:14:32;10.80;24.50
11009;DHT22;5557;51.670;7.788;2023-04-08T14:16:59;10.80;24.20
11009;DHT22;5557;51.670;7.788;2023-04-08T14:19:26;10.80;24.40
11009;DHT22;5557;51.670;7.788;2023-04-08T14:21:54;10.80;26.10
11009;DHT22;5557;51.670;7.788;2023-04-08T14:24:21;10.90;25.60
11009;DHT22;5557;51.670;7.788;2023-04-08T14:26:48;10.90;26.20
11009;DHT22;5557;51.670;7.788;2023-04-08T14:29:15;10.90;24.60
11009;DHT22;5557;51.670;7.788;2023-04-08T14:31:42;11.00;24.50
11009;DHT22;5557;51.670;7.788;2023-04-08T14:34:10;10.90;25.20
11009;DHT22;5557;51.670;7.788;2023-04-08T14:36:37;10.90;27.00
11009;DHT22;5557;51.670;7.788;2023-04-08T14:39:04;10.90;27.00
11009;DHT22;5557;51.670;7.788;2023-04-08T14:41:31;11.00;27.00
11009;DHT22;5557;51.670;7.788;2023-04-08T14:43:58;11.00;27.70
11009;DHT22;5557;51.670;7.788;2023-04-08T14:46:26;11.10;26.80
11009;DHT22;5557;51.670;7.788;2023-04-08T14:48:54;11.10;27.00
11009;DHT22;5557;51.670;7.788;2023-04-08T14:51:22;11.00;28.20
11009;DHT22;5557;51.670;7.788;2023-04-08T14:53:49;11.00;31.30
11009;DHT22;5557;51.670;7.788;2023-04-08T14:56:16;10.90;32.00
11009;DHT22;5557;51.670;7.788;2023-04-08T14:58:43;10.90;33.30
11009;DHT22;5557;51.670;7.788;2023-04-08T15:01:10;10.90;35.40
11009;DHT22;5557;51.670;7.788;2023-04-08T15:03:39;10.80;34.80
11009;DHT22;5557;51.670;7.788;2023-04-08T15:06:06;10.80;34.70
11009;DHT22;5557;51.670;7.788;2023-04-08T15:08:33;10.70;35.10
11009;DHT22;5557;51.670;7.788;2023-04-08T15:11:01;10.60;36.80
11009;DHT22;5557;51.670;7.788;2023-04-08T15:13:28;10.60;38.20
11009;DHT22;5557;51.670;7.788;2023-04-08T15:15:57;10.70;38.30
11009;DHT22;5557;51.670;7.788;2023-04-08T15:18:28;10.70;38.70
11009;DHT22;5557;51.670;7.788;2023-04-08T15:20:55;10.70;38.40
11009;DHT22;5557;51.670;7.788;2023-04-08T15:23:22;10.60;39.50
11009;DHT22;5557;51.670;7.788;2023-04-08T15:25:49;10.60;40.20
11009;DHT22;5557;51.670;7.788;2023-04-08T15:28:16;10.60;41.40
11009;DHT22;5557;51.670;7.788;2023-04-08T15:30:43;10.70;39.00
11009;DHT22;5557;51.670;7.788;2023-04-08T15:33:12;10.70;38.80
11009;DHT22;5557;51.670;7.788;2023-04-08T15:35:40;10.80;37.50
11009;DHT22;5557;51.670;7.788;2023-04-08T15:38:12;10.70;34.50
11009;DHT22;5557;51.670;7.788;2023-04-08T15:40:41;10.70;36.60
11009;DHT22;5557;51.670;7.788;2023-04-08T15:43:11;10.70;36.70
11009;DHT22;5557;51.670;7.788;2023-04-08T15:45:42;10.70;37.50
11009;DHT22;5557;51.670;7.788;2023-04-08T15:48:10;10.70;37.80
11009;DHT22;5557;51.670;7.788;2023-04-08T15:50:40;10.70;39.00
11009;DHT22;5557;51.670;7.788;2023-04-08T15:53:07;10.60;37.70
11009;DHT22;5557;51.670;7.788;2023-04-08T15:55:41;10.60;39.10
11009;DHT22;5557;51.670;7.788;2023-04-08T15:58:08;10.60;38.40
11009;DHT22;5557;51.670;7.788;2023-04-08T16:00:38;10.60;38.50
11009;DHT22;5557;51.670;7.788;2023-04-08T16:03:10;10.50;39.30
11009;DHT22;5557;51.670;7.788;2023-04-08T16:05:39;10.50;38.40
11009;DHT22;5557;51.670;7.788;2023-04-08T16:08:07;10.50;40.10
11009;DHT22;5557;51.670;7.788;2023-04-08T16:10:36;10.50;39.00
11009;DHT22;5557;51.670;7.788;2023-04-08T16:13:03;10.50;39.30
11009;DHT22;5557;51.670;7.788;2023-04-08T16:15:31;10.60;39.40
11009;DHT22;5557;51.670;7.788;2023-04-08T16:18:00;10.50;39.70